createdAt,value
2023-05-15T00:01:44.456Z,4.85
2023-05-15T00:04:12.971Z,4.28
2023-05-15T00:06:41.340Z,4.88
2023-05-15T00:09:09.657Z,4.47
2023-05-15T00:11:39.181Z,4.65
2023-05-15T00:14:07.865Z,4.55
2023-05-15T00:16:36.100Z,4.15
2023-05-15T00:19:04.564Z,4.20
2023-05-15T00:21:32.837Z,5.15
2023-05-15T00:24:01.034Z,4.28
2023-05-15T00:26:29.278Z,4.47
2023-05-15T00:28:58.867Z,4.70
2023-05-15T00:31:27.148Z,4.30
2023-05-15T00:33:55.396Z,4.78
2023-05-15T00:36:25.521Z,4.72
2023-05-15T00:38:53.876Z,4.85
2023-05-15T00:41:24.067Z,4.72
2023-05-15T00:43:54.943Z,4.57
2023-05-15T00:46:26.788Z,4.75
2023-05-15T00:48:57.196Z,4.80
2023-05-15T00:51:27.196Z,4.80
2023-05-15T00:53:56.793Z,4.75
2023-05-15T00:56:26.555Z,4.68
2023-05-15T00:58:57.352Z,4.95
2023-05-15T01:01:27.090Z,4.77
2023-05-15T01:03:55.369Z,4.93
2023-05-15T01:06:23.532Z,4.40
2023-05-15T01:08:54.349Z,4.90
2023-05-15T01:11:25.972Z,4.78
2023-05-15T01:13:54.116Z,4.75
2023-05-15T01:16:23.547Z,4.03
2023-05-15T01:18:53.204Z,4.70
2023-05-15T01:22:21.534Z,5.05
2023-05-15T01:25:41.190Z,4.73
2023-05-15T01:28:17.377Z,4.68
2023-05-15T01:30:49.215Z,4.63
2023-05-15T01:33:25.670Z,4.55
2023-05-15T01:36:01.206Z,4.20
2023-05-15T01:38:37.974Z,4.05
2023-05-15T01:41:16.440Z,4.75
2023-05-15T01:43:55.591Z,4.90
2023-05-15T01:46:25.214Z,4.00
2023-05-15T01:48:56.103Z,4.17
2023-05-15T01:51:27.152Z,4.67
2023-05-15T01:53:58.399Z,4.63
2023-05-15T01:56:28.463Z,5.13
2023-05-15T01:59:00.268Z,4.23
2023-05-15T02:01:33.837Z,4.53
2023-05-15T02:04:04.568Z,4.20
2023-05-15T02:06:34.163Z,5.40
2023-05-15T02:09:04.644Z,4.50
2023-05-15T02:11:33.014Z,4.80
2023-05-15T02:14:03.304Z,4.43
2023-05-15T02:16:31.707Z,4.38
2023-05-15T02:19:00.013Z,4.17
2023-05-15T02:21:28.118Z,4.30
2023-05-15T02:23:56.279Z,4.33
2023-05-15T02:26:40.477Z,4.70
2023-05-15T02:29:20.450Z,5.17
2023-05-15T02:32:00.656Z,4.70
2023-05-15T02:34:45.439Z,5.40
2023-05-15T02:37:21.898Z,4.93
2023-05-15T02:39:54.308Z,4.28
2023-05-15T02:42:23.685Z,4.13
2023-05-15T02:44:56.133Z,3.77
2023-05-15T02:47:26.005Z,4.20
2023-05-15T02:49:56.387Z,4.47
2023-05-15T02:52:25.626Z,3.97
2023-05-15T02:54:54.222Z,4.53
2023-05-15T02:57:22.553Z,3.93
2023-05-15T02:59:52.171Z,3.87
2023-05-15T03:02:20.276Z,4.18
2023-05-15T03:04:48.406Z,4.53
2023-05-15T03:07:16.587Z,3.70
2023-05-15T03:09:44.775Z,3.93
2023-05-15T03:12:12.943Z,3.83
2023-05-15T03:14:41.085Z,4.47
2023-05-15T03:17:10.653Z,3.70
2023-05-15T03:19:38.723Z,3.90
2023-05-15T03:22:07.166Z,3.70
2023-05-15T03:24:35.387Z,4.07
2023-05-15T03:27:03.960Z,4.17
2023-05-15T03:29:32.263Z,3.87
2023-05-15T03:32:00.476Z,3.80
2023-05-15T03:34:30.019Z,4.60
2023-05-15T03:36:58.212Z,4.03
2023-05-15T03:39:26.349Z,4.37
2023-05-15T03:41:54.441Z,4.60
2023-05-15T03:44:23.898Z,3.77
2023-05-15T03:46:52.038Z,3.90
2023-05-15T03:49:20.171Z,3.57
2023-05-15T03:51:49.690Z,4.60
2023-05-15T03:54:18.258Z,4.00
2023-05-15T03:56:50.368Z,3.70
2023-05-15T03:59:18.798Z,4.33
2023-05-15T04:02:02.594Z,4.40
2023-05-15T04:04:31.554Z,4.67
2023-05-15T04:07:01.385Z,4.50
2023-05-15T04:09:29.562Z,3.30
2023-05-15T04:11:57.719Z,4.40
2023-05-15T04:14:25.958Z,4.90
2023-05-15T04:16:54.161Z,4.43
2023-05-15T04:19:22.336Z,5.00
2023-05-15T04:21:50.688Z,4.80
2023-05-15T04:24:20.308Z,4.70
2023-05-15T04:26:48.440Z,5.03
2023-05-15T04:29:16.660Z,5.27
2023-05-15T04:31:44.777Z,6.03
2023-05-15T04:34:13.096Z,4.93
2023-05-15T04:36:42.918Z,5.43
2023-05-15T04:39:11.476Z,4.60
2023-05-15T04:41:40.915Z,4.97
2023-05-15T04:44:09.417Z,4.70
2023-05-15T04:46:37.711Z,4.90
2023-05-15T04:49:06.602Z,5.20
2023-05-15T04:51:35.065Z,4.97
2023-05-15T04:54:03.339Z,5.00
2023-05-15T04:56:31.471Z,4.57
2023-05-15T04:59:01.026Z,5.10
2023-05-15T05:01:30.433Z,5.63
2023-05-15T05:03:58.630Z,5.30
2023-05-15T05:06:28.105Z,5.23
2023-05-15T05:08:57.969Z,4.90
2023-05-15T05:11:26.053Z,5.30
2023-05-15T05:13:54.134Z,5.57
2023-05-15T05:16:23.694Z,5.03
2023-05-15T05:18:51.888Z,5.30
2023-05-15T05:21:20.123Z,5.73
2023-05-15T05:23:48.239Z,5.83
2023-05-15T05:26:16.368Z,5.77
2023-05-15T05:28:44.456Z,5.43
2023-05-15T05:31:12.613Z,5.80
2023-05-15T05:33:42.322Z,6.63
2023-05-15T05:36:11.293Z,5.70
2023-05-15T05:38:39.551Z,6.47
2023-05-15T05:41:07.780Z,6.50
2023-05-15T05:43:35.978Z,6.87
2023-05-15T05:46:04.272Z,6.27
2023-05-15T05:48:32.363Z,6.55
2023-05-15T05:51:01.818Z,7.43
2023-05-15T05:53:29.877Z,5.50
2023-05-15T05:55:58.336Z,6.43
2023-05-15T05:58:26.589Z,6.40
2023-05-15T06:00:55.132Z,5.78
2023-05-15T06:03:24.027Z,6.15
2023-05-15T06:05:52.896Z,7.20
2023-05-15T06:08:22.561Z,7.13
2023-05-15T06:10:50.701Z,7.57
2023-05-15T06:13:18.982Z,7.28
2023-05-15T06:15:47.384Z,7.40
2023-05-15T06:18:15.816Z,7.93
2023-05-15T06:20:44.042Z,7.43
2023-05-15T06:23:12.147Z,8.13
2023-05-15T06:25:41.982Z,7.70
2023-05-15T06:28:10.179Z,8.23
2023-05-15T06:30:38.434Z,8.02
2023-05-15T06:33:06.612Z,8.15
2023-05-15T06:35:34.800Z,7.35
2023-05-15T06:38:02.982Z,7.30
2023-05-15T06:40:31.277Z,7.25
2023-05-15T06:43:00.726Z,8.38
2023-05-15T06:45:29.150Z,7.70
2023-05-15T06:47:59.948Z,7.70
2023-05-15T06:50:29.730Z,8.20
2023-05-15T06:52:57.798Z,8.07
2023-05-15T06:55:26.303Z,8.32
2023-05-15T06:57:54.644Z,8.13
2023-05-15T07:00:24.325Z,8.45
2023-05-15T07:02:52.566Z,7.88
2023-05-15T07:05:21.794Z,7.85
2023-05-15T07:07:50.031Z,7.93
2023-05-15T07:10:18.404Z,7.53
2023-05-15T07:12:46.572Z,8.10
2023-05-15T07:15:14.667Z,7.10
2023-05-15T07:17:44.225Z,7.35
2023-05-15T07:20:13.230Z,7.93
2023-05-15T07:22:48.339Z,7.88
2023-05-15T07:25:24.817Z,7.15
2023-05-15T07:27:53.624Z,7.22
2023-05-15T07:30:21.957Z,6.28
2023-05-15T07:32:51.500Z,7.65
2023-05-15T07:35:19.770Z,7.28
2023-05-15T07:37:47.932Z,6.70
2023-05-15T07:40:16.511Z,7.45
2023-05-15T07:42:45.841Z,5.82
2023-05-15T07:45:14.171Z,6.20
2023-05-15T07:47:45.808Z,8.00
2023-05-15T07:50:16.390Z,6.32
2023-05-15T07:52:45.474Z,5.68
2023-05-15T07:55:14.040Z,5.22
2023-05-15T07:57:42.352Z,6.22
2023-05-15T08:00:13.631Z,6.00
2023-05-15T08:02:46.157Z,5.68
2023-05-15T08:05:16.546Z,5.57
2023-05-15T08:07:44.826Z,5.75
2023-05-15T08:10:13.046Z,5.18
2023-05-15T08:12:46.063Z,6.07
2023-05-15T08:15:15.329Z,5.60
2023-05-15T08:17:43.557Z,5.82
2023-05-15T08:20:13.302Z,5.30
2023-05-15T08:22:42.901Z,5.68
2023-05-15T08:25:11.579Z,5.28
2023-05-15T08:27:39.714Z,5.32
2023-05-15T08:30:09.713Z,5.47
2023-05-15T08:32:37.920Z,5.13
2023-05-15T08:35:07.407Z,5.22
2023-05-15T08:37:35.490Z,6.28
2023-05-15T08:40:07.854Z,5.40
2023-05-15T08:42:45.427Z,6.07
2023-05-15T08:45:14.794Z,5.40
2023-05-15T08:47:44.604Z,5.70
2023-05-15T08:50:15.350Z,5.07
2023-05-15T08:52:45.768Z,5.35
2023-05-15T08:55:16.070Z,5.85
2023-05-15T08:57:46.190Z,5.75
2023-05-15T09:00:16.116Z,5.57
2023-05-15T09:02:44.492Z,5.30
2023-05-15T09:05:15.573Z,4.75
2023-05-15T09:07:46.381Z,4.65
2023-05-15T09:10:17.710Z,4.13
2023-05-15T09:12:46.218Z,5.15
2023-05-15T09:15:17.947Z,5.05
2023-05-15T09:17:47.058Z,4.85
2023-05-15T09:20:29.344Z,4.78
2023-05-15T09:22:58.174Z,4.72
2023-05-15T09:25:39.841Z,4.95
2023-05-15T09:28:11.276Z,4.80
2023-05-15T09:30:39.917Z,4.80
2023-05-15T09:33:09.997Z,4.30
2023-05-15T09:35:40.599Z,5.30
2023-05-15T09:38:12.806Z,4.60
2023-05-15T09:40:42.520Z,4.20
2023-05-15T09:43:12.279Z,3.88
2023-05-15T09:45:40.540Z,4.20
2023-05-15T09:48:11.824Z,4.30
2023-05-15T09:50:42.309Z,4.15
2023-05-15T09:53:14.222Z,3.83
2023-05-15T09:55:44.442Z,3.45
2023-05-15T09:58:15.279Z,3.30
2023-05-15T10:00:47.770Z,3.72
2023-05-15T10:03:18.867Z,3.80
2023-05-15T10:05:47.217Z,3.60
2023-05-15T10:08:16.112Z,3.30
2023-05-15T10:10:47.215Z,3.08
2023-05-15T10:13:15.837Z,3.13
2023-05-15T10:15:44.231Z,3.22
2023-05-15T10:18:14.428Z,3.25
2023-05-15T10:20:43.219Z,3.20
2023-05-15T10:23:15.375Z,3.22
2023-05-15T10:25:53.545Z,4.18
2023-05-15T10:28:23.514Z,3.30
2023-05-15T10:30:54.114Z,3.97
2023-05-15T10:33:23.050Z,3.60
2023-05-15T10:35:52.688Z,3.50
2023-05-15T10:38:22.075Z,3.58
2023-05-15T10:41:05.585Z,3.50
2023-05-15T10:43:44.439Z,2.50
2023-05-15T10:46:14.828Z,1.50
2023-05-15T10:48:43.542Z,1.15
2023-05-15T10:51:17.362Z,1.13
2023-05-15T10:53:46.009Z,1.50
2023-05-15T10:56:17.551Z,1.55
2023-05-15T10:58:48.291Z,1.50
2023-05-15T11:01:28.063Z,1.27
2023-05-15T11:04:14.443Z,1.70
2023-05-15T11:06:44.794Z,1.50
2023-05-15T11:09:40.743Z,1.23
2023-05-15T11:12:11.720Z,1.33
2023-05-15T11:14:43.863Z,1.50
2023-05-15T11:17:15.230Z,1.50
2023-05-15T11:20:01.247Z,1.35
2023-05-15T11:22:33.379Z,1.80
2023-05-15T11:25:04.955Z,2.00
2023-05-15T11:27:40.996Z,1.80
2023-05-15T11:30:13.031Z,1.88
2023-05-15T11:32:58.265Z,1.90
2023-05-15T11:35:30.018Z,2.78
2023-05-15T11:38:00.768Z,2.95
2023-05-15T11:40:30.754Z,3.10
2023-05-15T11:43:09.500Z,3.10
2023-05-15T11:45:40.691Z,3.13
2023-05-15T11:48:14.842Z,3.20
2023-05-15T11:50:44.212Z,3.60
2023-05-15T11:53:13.656Z,3.08
2023-05-15T11:55:44.602Z,2.95
2023-05-15T11:58:16.757Z,3.35
2023-05-15T12:00:46.991Z,3.90
2023-05-15T12:03:23.715Z,3.45
2023-05-15T12:05:58.892Z,3.28
2023-05-15T12:08:33.303Z,3.10
2023-05-15T12:11:02.838Z,3.53
2023-05-15T12:13:35.136Z,3.30
2023-05-15T12:16:04.990Z,3.60
2023-05-15T12:18:33.898Z,4.10
2023-05-15T12:21:02.192Z,3.97
2023-05-15T12:23:30.409Z,3.60
2023-05-15T12:26:02.675Z,3.35
2023-05-15T12:28:36.046Z,2.65
2023-05-15T12:31:05.055Z,3.83
2023-05-15T12:33:33.321Z,3.28
2023-05-15T12:36:02.062Z,3.17
2023-05-15T12:38:31.025Z,2.88
2023-05-15T12:40:59.392Z,3.08
2023-05-15T12:43:27.895Z,3.65
2023-05-15T12:45:59.075Z,3.20
2023-05-15T12:48:32.100Z,3.63
2023-05-15T12:51:07.867Z,3.00
2023-05-15T12:53:39.651Z,3.58
2023-05-15T12:56:09.181Z,3.42
2023-05-15T12:58:38.228Z,3.53
2023-05-15T13:01:07.968Z,3.55
2023-05-15T13:03:36.939Z,3.20
2023-05-15T13:06:06.968Z,3.03
2023-05-15T13:08:42.411Z,3.05
2023-05-15T13:11:14.511Z,3.05
2023-05-15T13:13:48.395Z,2.90
2023-05-15T13:16:22.780Z,2.80
2023-05-15T13:18:51.109Z,2.58
2023-05-15T13:21:19.985Z,2.70
2023-05-15T13:23:48.467Z,2.22
2023-05-15T13:26:16.684Z,2.22
2023-05-15T13:28:44.868Z,2.55
2023-05-15T13:31:13.167Z,2.08
2023-05-15T13:33:42.764Z,2.42
2023-05-15T13:36:11.010Z,2.53
2023-05-15T13:38:39.353Z,2.70
2023-05-15T13:41:07.617Z,2.50
2023-05-15T13:43:35.733Z,3.15
2023-05-15T13:46:04.615Z,2.65
2023-05-15T13:48:33.448Z,2.78
2023-05-15T13:51:03.250Z,3.10
2023-05-15T13:53:31.363Z,3.33
2023-05-15T13:55:59.553Z,2.67
2023-05-15T13:58:27.695Z,3.10
2023-05-15T14:00:56.059Z,2.90
2023-05-15T14:03:24.296Z,2.88
2023-05-15T14:05:52.731Z,2.80
2023-05-15T14:08:22.322Z,2.72
2023-05-15T14:10:50.499Z,3.15
2023-05-15T14:13:19.546Z,3.38
2023-05-15T14:15:47.687Z,2.65
2023-05-15T14:18:15.873Z,2.97
2023-05-15T14:20:44.229Z,2.88
2023-05-15T14:23:12.373Z,2.40
2023-05-15T14:25:42.599Z,2.70
2023-05-15T14:28:11.352Z,2.75
2023-05-15T14:30:39.495Z,2.70
2023-05-15T14:33:07.777Z,2.85
2023-05-15T14:35:35.906Z,3.30
2023-05-15T14:38:04.787Z,2.60
2023-05-15T14:40:33.088Z,2.92
2023-05-15T14:43:02.782Z,2.83
2023-05-15T14:45:30.973Z,2.80
2023-05-15T14:47:59.085Z,3.00
2023-05-15T14:50:28.456Z,2.97
2023-05-15T14:52:56.653Z,3.10
2023-05-15T14:55:24.819Z,3.00
2023-05-15T14:57:53.064Z,3.45
2023-05-15T15:00:23.028Z,2.95
2023-05-15T15:02:51.317Z,3.22
2023-05-15T15:05:19.648Z,3.15
2023-05-15T15:08:03.642Z,2.80
2023-05-15T15:10:33.064Z,3.30
2023-05-15T15:13:01.519Z,3.10
2023-05-15T15:15:32.619Z,3.70
2023-05-15T15:18:01.026Z,4.18
2023-05-15T15:20:29.708Z,8.32
2023-05-15T15:22:57.866Z,3.35
2023-05-15T15:25:26.424Z,3.42
2023-05-15T15:27:54.682Z,3.22
2023-05-15T15:30:23.021Z,2.65
2023-05-15T15:32:54.517Z,2.70
2023-05-15T15:35:23.193Z,2.42
2023-05-15T15:37:51.407Z,2.40
2023-05-15T15:40:20.219Z,2.72
2023-05-15T15:42:48.425Z,3.00
2023-05-15T15:45:16.538Z,2.70
2023-05-15T15:47:44.759Z,2.97
2023-05-15T15:50:14.245Z,3.47
2023-05-15T15:52:42.473Z,2.90
2023-05-15T15:55:11.252Z,3.20
2023-05-15T15:57:39.488Z,2.90
2023-05-15T16:00:09.782Z,2.85
2023-05-15T16:02:38.332Z,2.80
2023-05-15T16:05:07.772Z,2.25
2023-05-15T16:07:37.357Z,2.53
2023-05-15T16:10:12.266Z,2.28
2023-05-15T16:12:42.473Z,2.92
2023-05-15T16:17:43.380Z,2.67
2023-05-15T16:20:12.469Z,3.05
2023-05-15T16:22:43.286Z,2.50
2023-05-15T16:25:11.671Z,2.80
2023-05-15T16:27:39.889Z,2.83
2023-05-15T16:30:11.386Z,3.50
2023-05-15T16:32:40.464Z,3.22
2023-05-15T16:35:09.930Z,3.08
2023-05-15T16:37:38.145Z,3.20
2023-05-15T16:40:09.742Z,3.35
2023-05-15T16:42:38.725Z,3.75
2023-05-15T16:45:08.881Z,3.40
2023-05-15T16:47:38.879Z,4.22
2023-05-15T16:50:08.778Z,3.47
2023-05-15T16:52:38.839Z,3.75
2023-05-15T16:55:10.071Z,3.40
2023-05-15T16:57:38.261Z,3.72
2023-05-15T17:00:09.434Z,3.30
2023-05-15T17:02:37.877Z,3.75
2023-05-15T17:05:08.763Z,3.80
2023-05-15T17:07:37.495Z,3.80
2023-05-15T17:10:08.830Z,3.35
2023-05-15T17:12:37.481Z,3.92
2023-05-15T17:15:07.295Z,3.85
2023-05-15T17:17:35.782Z,3.63
2023-05-15T17:20:05.622Z,3.58
2023-05-15T17:22:33.925Z,3.78
2023-05-15T17:25:02.147Z,3.92
2023-05-15T17:27:32.298Z,3.20
2023-05-15T17:30:00.763Z,2.97
2023-05-15T17:32:30.123Z,2.70
2023-05-15T17:34:58.324Z,2.83
2023-05-15T17:37:26.495Z,3.17
2023-05-15T17:39:59.131Z,2.70
2023-05-15T17:42:28.373Z,2.25
2023-05-15T17:44:58.110Z,2.80
2023-05-15T17:47:26.359Z,2.67
2023-05-15T17:49:55.446Z,2.30
2023-05-15T17:52:23.692Z,2.47
2023-05-15T17:54:54.428Z,2.90
2023-05-15T17:57:22.548Z,2.70
2023-05-15T17:59:50.873Z,2.88
2023-05-15T18:02:20.367Z,3.30
2023-05-15T18:04:48.560Z,3.10
2023-05-15T18:07:16.752Z,2.97
2023-05-15T18:09:45.070Z,3.50
2023-05-15T18:12:13.544Z,2.50
2023-05-15T18:14:41.958Z,3.50
2023-05-15T18:17:10.114Z,3.00
2023-05-15T18:19:40.029Z,3.00
2023-05-15T18:22:08.130Z,2.80
2023-05-15T18:24:36.275Z,2.45
2023-05-15T18:27:04.917Z,2.45
2023-05-15T18:29:33.126Z,3.00
2023-05-15T18:32:01.388Z,3.85
2023-05-15T18:34:29.588Z,3.20
2023-05-15T18:36:59.208Z,3.20
2023-05-15T18:39:27.377Z,4.28
2023-05-15T18:41:55.510Z,3.10
2023-05-15T18:44:23.691Z,3.00
2023-05-15T18:46:52.062Z,3.35
2023-05-15T18:49:21.386Z,3.10
2023-05-15T18:51:49.600Z,4.28
2023-05-15T18:54:19.145Z,4.47
2023-05-15T18:56:47.279Z,3.88
2023-05-15T18:59:15.627Z,3.53
2023-05-15T19:01:44.959Z,3.70
2023-05-15T19:04:13.754Z,3.05
2023-05-15T19:06:44.129Z,3.30
2023-05-15T19:09:12.316Z,3.10
2023-05-15T19:11:42.963Z,2.40
2023-05-15T19:14:15.323Z,3.78
2023-05-15T19:16:43.726Z,3.53
2023-05-15T19:19:12.434Z,3.40
2023-05-15T19:21:40.788Z,3.08
2023-05-15T19:24:09.519Z,3.20
2023-05-15T19:26:37.713Z,3.78
2023-05-15T19:29:07.255Z,6.20
2023-05-15T19:31:35.524Z,4.50
2023-05-15T19:34:07.046Z,7.25
2023-05-15T19:36:35.188Z,5.75
2023-05-15T19:39:03.427Z,5.03
2023-05-15T19:41:31.538Z,4.28
2023-05-15T19:43:59.672Z,2.92
2023-05-15T19:46:29.526Z,3.25
2023-05-15T19:48:57.784Z,3.17
2023-05-15T19:51:26.104Z,3.40
2023-05-15T19:53:54.204Z,3.88
2023-05-15T19:56:24.250Z,3.53
2023-05-15T19:58:52.593Z,3.35
2023-05-15T20:01:20.824Z,3.17
2023-05-15T20:03:50.450Z,3.50
2023-05-15T20:06:18.977Z,3.30
2023-05-15T20:08:47.859Z,3.13
2023-05-15T20:11:16.053Z,4.18
2023-05-15T20:13:44.296Z,3.40
2023-05-15T20:16:16.372Z,3.55
2023-05-15T20:18:47.778Z,3.63
2023-05-15T20:21:17.852Z,3.20
2023-05-15T20:23:46.346Z,3.42
2023-05-15T20:26:14.570Z,2.85
2023-05-15T20:28:45.232Z,3.35
2023-05-15T20:31:13.780Z,3.30
2023-05-15T20:33:42.016Z,3.50
2023-05-15T20:36:10.603Z,3.05
2023-05-15T20:38:40.586Z,3.40
2023-05-15T20:41:08.775Z,3.58
2023-05-15T20:43:38.393Z,3.17
2023-05-15T20:46:09.754Z,3.55
2023-05-15T20:48:37.899Z,4.57
2023-05-15T20:51:06.081Z,4.28
2023-05-15T20:53:34.269Z,4.30
2023-05-15T20:56:04.183Z,4.10
2023-05-15T20:58:32.371Z,4.03
2023-05-15T21:01:01.499Z,4.00
2023-05-15T21:03:30.375Z,4.47
2023-05-15T21:05:58.677Z,4.75
2023-05-15T21:08:27.736Z,4.45
2023-05-15T21:10:55.884Z,4.78
2023-05-15T21:13:25.412Z,4.72
2023-05-15T21:15:53.518Z,4.45
2023-05-15T21:18:21.648Z,4.03
2023-05-15T21:20:49.815Z,4.50
2023-05-15T21:23:18.167Z,4.38
2023-05-15T21:25:46.318Z,4.53
2023-05-15T21:28:14.486Z,4.90
2023-05-15T21:30:44.379Z,5.00
2023-05-15T21:33:12.538Z,4.75
2023-05-15T21:35:40.733Z,5.53
2023-05-15T21:38:08.834Z,4.90
2023-05-15T21:40:37.306Z,5.22
2023-05-15T21:43:05.626Z,4.90
2023-05-15T21:45:33.750Z,5.40
2023-05-15T21:48:03.818Z,5.93
2023-05-15T21:50:32.642Z,5.90
2023-05-15T21:53:01.101Z,5.97
2023-05-15T21:55:29.272Z,5.57
2023-05-15T21:57:57.372Z,6.22
2023-05-15T22:00:25.878Z,5.55
2023-05-15T22:02:54.181Z,5.43
2023-05-15T22:05:24.115Z,5.70
2023-05-15T22:07:52.222Z,5.30
2023-05-15T22:10:20.919Z,5.38
2023-05-15T22:12:49.441Z,6.45
2023-05-15T22:15:17.809Z,5.72
2023-05-15T22:17:45.950Z,6.05
2023-05-15T22:20:14.779Z,6.10
2023-05-15T22:22:44.299Z,6.65
2023-05-15T22:25:12.951Z,5.80
2023-05-15T22:27:41.714Z,5.85
2023-05-15T22:30:10.895Z,5.68
2023-05-15T22:32:39.373Z,5.57
2023-05-15T22:35:09.641Z,6.78
2023-05-15T22:37:38.364Z,6.25
2023-05-15T22:40:11.510Z,6.57
2023-05-15T22:42:39.749Z,6.07
2023-05-15T22:45:10.032Z,6.15
2023-05-15T22:47:38.825Z,5.78
2023-05-15T22:50:09.480Z,5.30
2023-05-15T22:52:38.099Z,6.28
2023-05-15T22:55:10.273Z,7.35
2023-05-15T22:57:38.584Z,6.82
2023-05-15T23:00:09.673Z,6.15
2023-05-15T23:02:38.633Z,6.05
2023-05-15T23:05:07.791Z,5.93
2023-05-15T23:07:35.947Z,6.18
2023-05-15T23:10:04.207Z,6.25
2023-05-15T23:12:33.691Z,5.55
2023-05-15T23:15:01.863Z,6.07
2023-05-15T23:17:30.454Z,6.25
2023-05-15T23:19:58.728Z,5.85
2023-05-15T23:22:26.894Z,6.15
2023-05-15T23:24:55.010Z,6.80
2023-05-15T23:27:23.171Z,5.20
2023-05-15T23:29:55.191Z,6.30
2023-05-15T23:32:23.338Z,5.93
2023-05-15T23:34:51.933Z,5.87
2023-05-15T23:37:20.076Z,6.77
2023-05-15T23:39:48.412Z,5.93
2023-05-15T23:42:16.521Z,6.23
2023-05-15T23:44:45.750Z,5.57
2023-05-15T23:47:16.221Z,6.43
2023-05-15T23:49:44.399Z,6.47
2023-05-15T23:52:15.625Z,6.47
2023-05-15T23:54:43.800Z,7.97
2023-05-15T23:57:12.015Z,7.63
2023-05-15T23:59:40.283Z,7.13
